Time;durP1;ratioP1;P1;durP2;ratioP2;P2;SDS_P1;SDS_P2;PMS_P1;PMS_P2;Temp;Humidity;BMP_temperature;BMP_pressure;BME280_temperature;BME280_humidity;BME280_pressure;Samples;Min_cycle;Max_cycle;Signal;HPM_P1;HPM_P2
2021/12/20 00:02:10;;;;;;;3.95;1.88;;;-2.50;99.90;;;;;;5053547;28;20025;-66
2021/12/20 00:04:36;;;;;;;3.05;2.50;;;-2.50;99.90;;;;;;5053591;28;20550;-66
2021/12/20 00:07:02;;;;;;;3.35;2.10;;;-2.50;99.90;;;;;;5053765;28;20524;-66
2021/12/20 00:09:28;;;;;;;2.15;1.60;;;-2.50;99.90;;;;;;5053129;28;20040;-66
2021/12/20 00:11:53;;;;;;;3.10;2.35;;;-2.50;99.90;;;;;;5053432;28;20074;-66
2021/12/20 00:14:19;;;;;;;2.70;2.20;;;-2.50;99.90;;;;;;5053396;28;20116;-66
2021/12/20 00:16:45;;;;;;;3.35;2.00;;;-2.40;99.90;;;;;;5053570;28;20075;-66
2021/12/20 00:19:10;;;;;;;3.25;2.13;;;-2.40;99.90;;;;;;5053518;28;20025;-66
2021/12/20 00:21:37;;;;;;;2.70;2.00;;;-2.40;99.90;;;;;;5053118;28;20310;-66
2021/12/20 00:24:03;;;;;;;2.60;2.03;;;-2.40;99.90;;;;;;5051897;28;20025;-66
2021/12/20 00:26:29;;;;;;;3.28;1.90;;;-2.40;99.90;;;;;;5052976;28;20017;-66
2021/12/20 00:28:55;;;;;;;3.00;2.13;;;-2.40;99.90;;;;;;5052958;28;20420;-66
2021/12/20 00:31:20;;;;;;;3.53;2.20;;;-2.40;99.90;;;;;;5053212;28;20017;-66
2021/12/20 00:33:46;;;;;;;2.85;1.85;;;-2.50;99.90;;;;;;5052210;28;20021;-66
2021/12/20 00:36:20;;;;;;;3.80;2.35;;;-2.40;99.90;;;;;;5052954;28;20479;-66
2021/12/20 00:41:30;;;;;;;2.03;1.83;;;-2.40;99.90;;;;;;5052723;28;20523;-66
2021/12/20 00:43:56;;;;;;;2.67;1.98;;;-2.40;99.90;;;;;;5052978;28;20025;-66
2021/12/20 00:46:21;;;;;;;2.13;1.65;;;-2.40;99.90;;;;;;5052619;28;20116;-66
2021/12/20 00:48:47;;;;;;;3.60;1.95;;;-2.40;99.90;;;;;;5052836;28;20036;-66
2021/12/20 00:51:13;;;;;;;2.45;2.10;;;-2.50;99.90;;;;;;5052743;28;20404;-66
2021/12/20 00:53:39;;;;;;;2.10;1.88;;;-2.40;99.90;;;;;;5052796;28;20064;-65
2021/12/20 00:56:04;;;;;;;4.60;1.70;;;-2.50;99.90;;;;;;5052706;28;20070;-64
2021/12/20 00:58:30;;;;;;;3.03;2.10;;;-2.40;99.90;;;;;;5052376;28;20483;-64
2021/12/20 01:00:58;;;;;;;2.42;1.92;;;-2.40;99.90;;;;;;5052686;28;20028;-64
2021/12/20 01:03:24;;;;;;;2.10;1.90;;;-2.50;99.90;;;;;;5052680;28;20025;-64
2021/12/20 01:05:50;;;;;;;2.85;2.20;;;-2.40;99.90;;;;;;5052831;28;20126;-65
2021/12/20 01:08:17;;;;;;;2.58;2.30;;;-2.40;99.90;;;;;;5052359;28;20516;-65
2021/12/20 01:10:48;;;;;;;2.33;2.10;;;-2.50;99.90;;;;;;5052222;28;20032;-65
2021/12/20 01:13:16;;;;;;;;;;;-2.50;99.90;;;;;;5052845;28;20029;-65
2021/12/20 01:15:47;;;;;;;1.75;1.42;;;-2.50;99.90;;;;;;5052336;28;19955;-65
2021/12/20 01:18:13;;;;;;;2.88;2.00;;;-2.60;99.90;;;;;;5052267;28;20045;-65
2021/12/20 01:20:41;;;;;;;2.13;1.80;;;-2.70;99.90;;;;;;5052310;28;20032;-65
2021/12/20 01:23:07;;;;;;;2.38;1.90;;;-2.60;99.90;;;;;;5052173;28;20021;-65
2021/12/20 01:25:33;;;;;;;2.00;1.60;;;-2.70;99.90;;;;;;5052095;28;20029;-65
2021/12/20 01:27:59;;;;;;;2.42;1.92;;;-2.60;99.90;;;;;;5051900;28;20033;-65
2021/12/20 01:30:26;;;;;;;3.70;1.92;;;-2.60;99.90;;;;;;5052117;28;20029;-65
2021/12/20 01:32:52;;;;;;;2.45;2.03;;;-2.60;99.90;;;;;;5051955;28;20453;-65
2021/12/20 01:35:20;;;;;;;3.00;2.20;;;-2.70;99.90;;;;;;5052262;28;20071;-65
2021/12/20 01:37:46;;;;;;;2.55;1.90;;;-2.70;99.90;;;;;;5051748;28;20120;-65
2021/12/20 01:40:14;;;;;;;2.45;1.95;;;-2.80;99.90;;;;;;5051857;28;20049;-65
2021/12/20 01:42:41;;;;;;;2.78;1.80;;;-2.80;99.90;;;;;;5051703;28;20039;-65
2021/12/20 01:45:16;;;;;;;2.72;1.77;;;-2.80;99.90;;;;;;5050621;28;20025;-65
2021/12/20 01:47:48;;;;;;;2.00;1.80;;;-2.80;99.90;;;;;;5051579;28;20568;-65
2021/12/20 01:50:24;;;;;;;4.20;2.40;;;-2.80;99.90;;;;;;5051688;28;20025;-65
2021/12/20 01:52:51;;;;;;;2.88;2.17;;;-2.80;99.90;;;;;;5051754;28;20039;-65
2021/12/20 01:55:20;;;;;;;2.92;2.25;;;-2.80;99.90;;;;;;5051869;28;20051;-65
2021/12/20 01:57:48;;;;;;;2.22;2.03;;;-2.80;99.90;;;;;;5051497;28;20049;-65
2021/12/20 02:00:18;;;;;;;2.90;2.00;;;-2.70;99.90;;;;;;5051717;28;20021;-65
2021/12/20 02:02:44;;;;;;;2.92;2.20;;;-2.80;99.90;;;;;;5051583;28;20033;-65
2021/12/20 02:05:25;;;;;;;2.70;2.10;;;-2.80;99.90;;;;;;5051530;28;20025;-65
2021/12/20 02:08:13;;;;;;;2.88;2.13;;;-2.80;99.90;;;;;;5051575;28;20025;-65
2021/12/20 02:10:39;;;;;;;2.45;2.08;;;-2.80;99.90;;;;;;5051469;28;20018;-65
2021/12/20 02:13:06;;;;;;;4.38;2.58;;;-2.70;99.90;;;;;;5051598;28;20060;-65
2021/12/20 02:15:31;;;;;;;2.50;2.30;;;-2.70;99.90;;;;;;5051347;28;20018;-66
2021/12/20 02:17:57;;;;;;;2.80;2.30;;;-2.60;99.90;;;;;;5051623;28;20066;-66
2021/12/20 02:20:31;;;;;;;4.35;2.53;;;-2.70;99.90;;;;;;5051728;28;20022;-66
2021/12/20 02:22:59;;;;;;;2.55;2.22;;;-2.60;99.90;;;;;;5051613;28;20029;-66
2021/12/20 02:52:08;;;;;;;2.97;2.13;;;-2.70;99.90;;;;;;5051235;28;20046;-65
2021/12/20 02:54:35;;;;;;;2.67;2.33;;;-2.80;99.90;;;;;;5051160;28;20063;-65
2021/12/20 02:57:00;;;;;;;3.17;2.22;;;-2.80;99.90;;;;;;5050862;28;20093;-65
2021/12/20 02:59:26;;;;;;;2.13;1.80;;;-2.80;99.90;;;;;;5055069;28;20028;-65
2021/12/20 03:02:00;;;;;;;5.20;2.00;;;-2.70;99.90;;;;;;5054586;28;20032;-65
2021/12/20 03:04:26;;;;;;;2.35;2.15;;;-2.70;99.90;;;;;;5054690;28;20546;-65
2021/12/20 03:06:58;;;;;;;3.30;1.92;;;-2.70;99.90;;;;;;5054550;28;20017;-65
2021/12/20 03:09:32;;;;;;;3.75;2.50;;;-2.70;99.90;;;;;;5054623;28;20044;-65
2021/12/20 03:12:00;;;;;;;2.47;1.50;;;-2.70;99.90;;;;;;5054754;28;20024;-65
2021/12/20 03:14:35;;;;;;;4.97;2.40;;;-2.70;99.90;;;;;;5054391;28;20078;-65
2021/12/20 03:17:01;;;;;;;2.45;1.80;;;-2.80;99.90;;;;;;5053152;28;20021;-65
2021/12/20 03:19:28;;;;;;;2.47;2.28;;;-2.80;99.90;;;;;;5054327;28;20021;-65
2021/12/20 03:21:55;;;;;;;3.60;2.03;;;-2.90;99.90;;;;;;5054308;28;20112;-65
2021/12/20 03:24:21;;;;;;;2.70;1.85;;;-2.90;99.90;;;;;;5054314;28;20021;-65
2021/12/20 03:26:47;;;;;;;3.38;2.20;;;-2.90;99.90;;;;;;5054463;28;20021;-66
2021/12/20 03:29:12;;;;;;;2.30;2.08;;;-2.90;99.90;;;;;;5053979;28;20052;-67
2021/12/20 03:31:39;;;;;;;2.47;2.13;;;-2.90;99.90;;;;;;5054236;28;20029;-67
2021/12/20 03:34:06;;;;;;;3.85;2.28;;;-2.90;99.90;;;;;;5054216;28;20048;-67
2021/12/20 03:36:32;;;;;;;3.08;2.45;;;-3.00;99.90;;;;;;5054331;28;20044;-66
2021/12/20 03:38:58;;;;;;;2.38;2.08;;;-3.00;99.90;;;;;;5053779;28;20025;-66
2021/12/20 03:41:24;;;;;;;2.13;1.92;;;-3.10;99.90;;;;;;5054083;28;20025;-66
2021/12/20 03:43:50;;;;;;;4.28;2.78;;;-3.10;99.90;;;;;;5054131;28;20029;-66
2021/12/20 03:46:17;;;;;;;2.42;2.10;;;-3.00;99.90;;;;;;5054268;28;20100;-66
2021/12/20 03:48:42;;;;;;;2.60;2.00;;;-3.10;99.90;;;;;;5053888;28;20094;-66
2021/12/20 03:51:09;;;;;;;3.80;2.33;;;-3.10;99.90;;;;;;5053859;28;20025;-66
2021/12/20 03:53:35;;;;;;;2.85;1.92;;;-3.10;99.90;;;;;;5053946;28;20547;-66
2021/12/20 03:56:03;;;;;;;2.70;1.90;;;-3.10;99.90;;;;;;5053701;28;20063;-66
2021/12/20 03:58:29;;;;;;;3.58;2.42;;;-3.10;99.90;;;;;;5054055;28;20025;-66
2021/12/20 04:00:56;;;;;;;2.40;2.20;;;-3.10;99.90;;;;;;5052348;28;20489;-66
2021/12/20 04:03:23;;;;;;;3.70;2.33;;;-3.10;99.90;;;;;;5053601;28;20022;-66
2021/12/20 04:05:49;;;;;;;3.67;2.40;;;-3.10;99.90;;;;;;5053529;28;20048;-66
2021/12/20 04:08:14;;;;;;;3.42;2.60;;;-3.10;99.90;;;;;;5053323;28;20032;-65
2021/12/20 04:10:40;;;;;;;3.15;2.40;;;-3.10;99.90;;;;;;5053394;28;20024;-66
2021/12/20 04:13:08;;;;;;;2.60;2.33;;;-3.10;99.90;;;;;;5053248;28;20032;-66
2021/12/20 04:15:34;;;;;;;4.43;2.38;;;-3.10;99.90;;;;;;5053523;28;20048;-66
2021/12/20 04:18:00;;;;;;;3.17;2.35;;;-3.10;99.90;;;;;;5053457;28;20025;-67
2021/12/20 04:20:26;;;;;;;2.50;2.17;;;-3.20;99.90;;;;;;5053447;28;20448;-67
2021/12/20 04:22:52;;;;;;;2.47;2.28;;;-3.20;99.90;;;;;;5053256;28;20029;-67
2021/12/20 04:25:18;;;;;;;3.65;2.22;;;-3.20;99.90;;;;;;5053092;28;20052;-67
2021/12/20 04:27:43;;;;;;;3.60;2.95;;;-3.20;99.90;;;;;;5053359;28;20040;-67
2021/12/20 04:30:11;;;;;;;2.47;2.25;;;-3.20;99.90;;;;;;5052889;28;20396;-67
2021/12/20 04:32:38;;;;;;;2.95;2.15;;;-3.20;99.90;;;;;;5053004;28;20028;-66
2021/12/20 04:35:05;;;;;;;3.08;2.47;;;-3.30;99.90;;;;;;5052782;28;20044;-66
2021/12/20 04:37:30;;;;;;;3.55;2.22;;;-3.30;99.90;;;;;;5053212;28;20388;-65
2021/12/20 04:39:57;;;;;;;3.83;2.45;;;-3.30;99.90;;;;;;5051707;28;20024;-66
2021/12/20 04:42:23;;;;;;;6.93;2.97;;;-3.30;99.90;;;;;;5053137;28;20040;-66
2021/12/20 04:44:48;;;;;;;4.72;2.45;;;-3.20;99.90;;;;;;5053003;28;20369;-66
2021/12/20 04:47:14;;;;;;;2.95;2.28;;;-3.30;99.90;;;;;;5052533;28;20111;-66
2021/12/20 04:49:40;;;;;;;5.47;2.35;;;-3.30;99.90;;;;;;5052971;28;20397;-66
2021/12/20 04:52:05;;;;;;;5.00;2.83;;;-3.30;99.90;;;;;;5052510;28;20463;-66
2021/12/20 04:54:31;;;;;;;3.20;2.63;;;-3.30;99.90;;;;;;5052526;28;20529;-66
2021/12/20 04:56:57;;;;;;;3.08;2.47;;;-3.20;99.90;;;;;;5052253;28;20053;-66
2021/12/20 04:59:23;;;;;;;3.20;2.72;;;-3.30;99.90;;;;;;5052513;28;20049;-66
2021/12/20 05:01:48;;;;;;;4.00;2.97;;;-3.30;99.90;;;;;;5052812;28;20027;-66
2021/12/20 05:04:14;;;;;;;3.65;2.63;;;-3.30;99.90;;;;;;5052433;28;20024;-66
2021/12/20 05:06:40;;;;;;;3.50;3.20;;;-3.30;99.90;;;;;;5052530;28;20397;-66
2021/12/20 05:09:06;;;;;;;4.10;3.30;;;-3.30;99.90;;;;;;5052226;28;20132;-66
2021/12/20 05:11:34;;;;;;;4.00;2.75;;;-3.40;99.90;;;;;;5052519;28;20039;-67
2021/12/20 05:14:03;;;;;;;5.47;2.28;;;-3.40;99.90;;;;;;5052209;28;20025;-64
2021/12/20 05:16:29;;;;;;;2.67;2.22;;;-3.40;99.90;;;;;;5052124;28;20063;-64
2021/12/20 05:18:55;;;;;;;3.15;2.33;;;-3.50;99.90;;;;;;5052175;28;20021;-64
2021/12/20 05:21:20;;;;;;;2.85;2.58;;;-3.40;99.90;;;;;;5052182;28;20374;-64
2021/12/20 05:23:46;;;;;;;3.05;2.70;;;-3.50;99.90;;;;;;5052425;28;20111;-64
2021/12/20 05:26:12;;;;;;;3.38;2.53;;;-3.50;99.90;;;;;;5051645;28;20530;-64
2021/12/20 05:28:37;;;;;;;3.22;2.70;;;-3.40;99.90;;;;;;5051837;28;20043;-65
2021/12/20 05:31:03;;;;;;;3.15;2.85;;;-3.40;99.90;;;;;;5051983;28;20388;-66
2021/12/20 05:33:29;;;;;;;3.03;2.70;;;-3.30;99.90;;;;;;5051897;28;20098;-65
2021/12/20 05:35:55;;;;;;;3.42;2.63;;;-3.30;99.90;;;;;;5052055;28;20266;-66
2021/12/20 05:38:21;;;;;;;3.63;2.63;;;-3.40;99.90;;;;;;5051890;28;20021;-67
2021/12/20 05:40:47;;;;;;;5.63;1.88;;;-3.30;99.90;;;;;;5051881;28;20104;-69
2021/12/20 05:43:12;;;;;;;6.05;3.30;;;-2.10;99.90;;;;;;5051293;28;20029;-68
2021/12/20 05:45:38;;;;;;;2.50;2.30;;;-0.20;99.90;;;;;;5051052;28;20032;-68
2021/12/20 05:48:04;;;;;;;3.33;2.80;;;-0.50;99.90;;;;;;5051559;28;20029;-69
2021/12/20 05:50:30;;;;;;;4.32;2.67;;;-1.10;99.90;;;;;;5051233;28;20028;-71
2021/12/20 05:52:56;;;;;;;5.32;2.80;;;-1.70;99.90;;;;;;5051207;28;20032;-72
2021/12/20 05:55:22;;;;;;;3.50;2.78;;;-2.10;99.90;;;;;;5050983;28;20016;-71
2021/12/20 05:57:48;;;;;;;2.47;2.28;;;-2.40;99.90;;;;;;5050522;28;20053;-71
2021/12/20 06:00:18;;;;;;;2.88;2.47;;;-2.50;99.90;;;;;;5050751;28;20644;-71
2021/12/20 06:02:46;;;;;;;3.10;2.75;;;-2.70;99.90;;;;;;5048210;28;20029;-70
2021/12/20 06:05:13;;;;;;;3.45;2.85;;;-2.80;99.90;;;;;;5049936;28;20488;-68
2021/12/20 06:07:41;;;;;;;4.45;2.83;;;-2.80;99.90;;;;;;5050648;28;20052;-66
2021/12/20 06:10:10;;;;;;;4.07;3.03;;;-2.80;99.90;;;;;;5048152;28;20474;-66
2021/12/20 06:12:35;;;;;;;2.67;2.38;;;-2.90;99.90;;;;;;5050691;28;20036;-67
2021/12/20 06:15:05;;;;;;;3.70;2.65;;;-3.00;99.90;;;;;;5050537;28;20017;-67
2021/12/20 06:17:31;;;;;;;5.07;2.78;;;-3.10;99.90;;;;;;5050830;28;20020;-67
2021/12/20 06:19:56;;;;;;;3.05;2.50;;;-3.20;99.90;;;;;;5051045;28;20400;-67
2021/12/20 06:22:22;;;;;;;5.05;3.30;;;-3.30;99.90;;;;;;5050818;28;20031;-66
2021/12/20 06:24:48;;;;;;;2.85;2.50;;;-3.40;99.90;;;;;;5051107;28;20024;-66
2021/12/20 06:27:14;;;;;;;4.05;3.03;;;-3.50;99.90;;;;;;5049791;28;20036;-68
2021/12/20 06:29:39;;;;;;;2.53;2.33;;;-3.60;99.90;;;;;;5051447;28;20032;-67
2021/12/20 06:32:05;;;;;;;2.63;2.40;;;-3.40;99.90;;;;;;5052612;28;20075;-67
2021/12/20 06:34:31;;;;;;;3.63;2.50;;;-3.40;99.90;;;;;;5055010;28;20029;-68
2021/12/20 06:36:57;;;;;;;2.65;2.38;;;-3.60;99.90;;;;;;5055249;28;20021;-68
2021/12/20 06:39:23;;;;;;;3.13;2.83;;;-3.80;99.90;;;;;;5055372;28;20033;-68
2021/12/20 06:41:50;;;;;;;2.65;2.40;;;-3.80;99.90;;;;;;5055106;28;20483;-66
2021/12/20 06:44:16;;;;;;;4.00;3.03;;;-3.80;99.90;;;;;;5055066;28;20033;-66
2021/12/20 06:46:42;;;;;;;3.65;2.70;;;-3.80;99.90;;;;;;5055027;28;20392;-67
2021/12/20 06:49:09;;;;;;;3.08;2.78;;;-3.90;99.90;;;;;;5055124;28;20129;-67
2021/12/20 06:51:42;;;;;;;3.35;2.78;;;-4.00;99.90;;;;;;5055113;28;20098;-67
2021/12/20 06:54:15;;;;;;;2.97;2.70;;;-4.10;99.90;;;;;;5054805;28;20031;-67
2021/12/20 06:56:42;;;;;;;3.60;2.92;;;-4.10;99.90;;;;;;5054582;28;20559;-67
2021/12/20 06:59:08;;;;;;;2.70;2.45;;;-4.10;99.90;;;;;;5054507;28;20036;-67
2021/12/20 07:01:34;;;;;;;2.83;2.53;;;-4.20;99.90;;;;;;5053207;28;20033;-66
2021/12/20 07:04:01;;;;;;;3.30;2.40;;;-4.30;99.90;;;;;;5054699;28;20100;-66
2021/12/20 07:06:30;;;;;;;3.38;2.65;;;-4.30;99.90;;;;;;5054547;28;20033;-66
2021/12/20 07:08:57;;;;;;;3.00;2.38;;;-4.30;99.90;;;;;;5054555;28;20615;-68
2021/12/20 07:11:23;;;;;;;3.05;2.70;;;-4.40;99.90;;;;;;5054375;28;20021;-68
2021/12/20 07:13:49;;;;;;;2.40;2.20;;;-4.30;99.90;;;;;;5054552;28;20385;-65
2021/12/20 07:16:15;;;;;;;2.95;2.42;;;-4.20;99.90;;;;;;5054392;28;20108;-65
2021/12/20 07:18:41;;;;;;;3.58;2.10;;;-4.20;99.90;;;;;;5054327;28;20565;-64
2021/12/20 07:21:07;;;;;;;2.30;2.10;;;-4.40;99.90;;;;;;5054220;28;20057;-64
2021/12/20 07:23:34;;;;;;;2.92;2.63;;;-4.50;99.90;;;;;;5054121;28;20488;-65
2021/12/20 07:26:01;;;;;;;2.65;2.30;;;-4.60;99.90;;;;;;5054231;28;20025;-62
2021/12/20 07:28:27;;;;;;;2.83;2.53;;;-4.60;99.90;;;;;;5054396;28;20082;-62
2021/12/20 07:30:53;;;;;;;2.40;2.20;;;-3.90;99.90;;;;;;5054428;28;20384;-62
2021/12/20 07:33:19;;;;;;;2.45;2.25;;;-3.60;99.90;;;;;;5054040;28;20445;-62
2021/12/20 07:35:45;;;;;;;3.17;2.25;;;-3.80;99.90;;;;;;5053940;28;20070;-62
2021/12/20 07:38:14;;;;;;;4.80;2.80;;;-3.60;99.90;;;;;;5053934;28;20377;-62
2021/12/20 07:40:47;;;;;;;5.03;2.50;;;-3.70;99.90;;;;;;5053785;28;20151;-62
2021/12/20 07:43:16;;;;;;;4.25;2.70;;;-3.80;99.90;;;;;;5053186;28;20072;-62
2021/12/20 07:45:42;;;;;;;3.10;2.60;;;-4.00;99.90;;;;;;5053604;28;20040;-64
2021/12/20 07:48:08;;;;;;;4.38;2.70;;;-4.10;99.90;;;;;;5053262;28;20033;-64
2021/12/20 07:50:35;;;;;;;4.97;2.58;;;-4.20;99.90;;;;;;5052690;28;20037;-64
2021/12/20 07:53:01;;;;;;;3.30;2.22;;;-4.30;99.90;;;;;;5050334;28;20048;-62
2021/12/20 07:55:27;;;;;;;3.22;2.70;;;-4.40;99.90;;;;;;5049069;28;20098;-62
2021/12/20 07:57:52;;;;;;;3.05;2.17;;;-4.40;99.90;;;;;;5069189;28;20080;-62
2021/12/20 08:00:19;;;;;;;4.03;2.88;;;-4.40;99.90;;;;;;5059750;28;20388;-62
2021/12/20 08:02:45;;;;;;;4.00;2.75;;;-4.50;99.90;;;;;;5073168;28;20470;-62
2021/12/20 08:05:14;;;;;;;5.07;2.67;;;-4.60;99.90;;;;;;5059771;28;20093;-62
2021/12/20 08:07:40;;;;;;;8.15;3.38;;;-4.70;99.90;;;;;;5061746;28;20136;-65
2021/12/20 08:10:07;;;;;;;5.00;2.90;;;-4.70;99.90;;;;;;5067031;28;20048;-65
2021/12/20 08:12:33;;;;;;;4.03;2.80;;;-4.80;99.90;;;;;;5056414;28;20388;-65
2021/12/20 08:14:58;;;;;;;3.83;2.85;;;-4.90;99.90;;;;;;5067599;28;20119;-64
2021/12/20 08:17:24;;;;;;;4.18;2.92;;;-4.90;99.90;;;;;;5060855;28;20083;-64
2021/12/20 08:19:50;;;;;;;6.72;3.25;;;-4.90;99.90;;;;;;5060006;28;20040;-63
2021/12/20 08:22:16;;;;;;;4.85;3.28;;;-5.00;99.90;;;;;;5051339;28;20071;-63
2021/12/20 08:24:41;;;;;;;6.57;3.20;;;-5.10;99.90;;;;;;5069203;28;20043;-64
2021/12/20 08:27:07;;;;;;;4.57;2.95;;;-5.20;99.90;;;;;;5058614;28;20020;-63
2021/12/20 08:29:33;;;;;;;5.28;3.05;;;-5.20;99.90;;;;;;5069023;28;20020;-64
2021/12/20 08:32:01;;;;;;;5.45;3.28;;;-5.30;99.90;;;;;;5059304;28;20357;-64
2021/12/20 08:34:28;;;;;;;5.20;3.60;;;-5.40;99.90;;;;;;5068729;28;20112;-64
2021/12/20 08:36:55;;;;;;;7.40;3.30;;;-5.60;99.90;;;;;;5056490;28;20495;-64
2021/12/20 08:39:21;;;;;;;7.35;3.78;;;-5.70;99.90;;;;;;5063618;28;20400;-64
2021/12/20 08:41:47;;;;;;;9.95;3.78;;;-5.70;99.90;;;;;;5052034;28;20025;-64
2021/12/20 08:44:13;;;;;;;5.57;3.35;;;-5.80;99.90;;;;;;5052244;28;20047;-62
2021/12/20 08:46:40;;;;;;;5.68;3.05;;;-5.80;99.90;;;;;;5051971;28;20043;-64
2021/12/20 08:49:07;;;;;;;4.45;2.80;;;-5.80;99.90;;;;;;5051668;28;20029;-64
2021/12/20 08:51:35;;;;;;;2.90;2.60;;;-5.90;99.90;;;;;;5052283;28;20044;-63
2021/12/20 08:54:01;;;;;;;5.53;2.70;;;-5.80;99.90;;;;;;5051376;28;20215;-64
2021/12/20 08:56:27;;;;;;;8.10;3.30;;;-4.90;99.90;;;;;;5051810;28;20568;-64
2021/12/20 08:58:53;;;;;;;6.03;3.00;;;-3.50;99.90;;;;;;5052324;28;20033;-63
2021/12/20 09:01:18;;;;;;;5.78;3.67;;;-2.40;99.90;;;;;;5052136;28;20029;-63
2021/12/20 09:03:44;;;;;;;3.67;2.90;;;-2.90;99.90;;;;;;5052436;28;20061;-63
2021/12/20 09:06:11;;;;;;;5.78;2.90;;;-3.80;99.90;;;;;;5052413;28;20024;-63
2021/12/20 09:08:39;;;;;;;6.80;3.13;;;-4.50;99.90;;;;;;5052179;28;20108;-63
2021/12/20 09:11:05;;;;;;;6.25;2.65;;;-4.90;99.90;;;;;;5052088;28;20021;-63
2021/12/20 09:13:30;;;;;;;3.50;2.45;;;-5.10;99.90;;;;;;5052286;28;20033;-63
2021/12/20 09:15:59;;;;;;;5.68;2.75;;;-5.40;99.90;;;;;;5052304;28;20024;-63
2021/12/20 09:18:27;;;;;;;5.13;3.28;;;-5.60;99.90;;;;;;5052024;28;20345;-63
2021/12/20 09:20:54;;;;;;;5.30;2.75;;;-5.70;99.90;;;;;;5050481;28;20025;-63
2021/12/20 09:23:20;;;;;;;5.68;2.88;;;-5.80;99.90;;;;;;5052150;28;20385;-63
2021/12/20 09:25:46;;;;;;;4.63;2.80;;;-5.90;99.90;;;;;;5051978;28;20535;-63
2021/12/20 09:28:14;;;;;;;4.65;3.22;;;-6.00;99.90;;;;;;5052144;28;20041;-63
2021/12/20 09:30:43;;;;;;;4.32;3.17;;;-6.00;99.90;;;;;;5051703;28;20453;-64
2021/12/20 09:33:09;;;;;;;4.80;3.00;;;-6.00;99.90;;;;;;5051748;28;20031;-63
2021/12/20 09:35:36;;;;;;;3.05;2.58;;;-6.10;99.90;;;;;;5050714;28;20017;-63
2021/12/20 09:38:06;;;;;;;4.18;3.20;;;-6.20;99.90;;;;;;5052312;28;20025;-63
2021/12/20 09:40:34;;;;;;;5.10;3.70;;;-6.30;99.90;;;;;;5051882;28;20013;-63
2021/12/20 09:43:04;;;;;;;3.55;2.83;;;-6.30;99.90;;;;;;5051993;28;20132;-63
2021/12/20 09:45:30;;;;;;;4.68;2.63;;;-6.40;99.90;;;;;;5051967;28;20048;-62
2021/12/20 09:47:56;;;;;;;3.90;2.80;;;-6.40;99.90;;;;;;5050332;28;20044;-63
2021/12/20 09:50:22;;;;;;;2.60;2.40;;;-6.40;99.90;;;;;;5051526;28;20558;-63
2021/12/20 09:52:48;;;;;;;4.25;2.65;;;-6.40;99.90;;;;;;5051812;28;20051;-62
2021/12/20 09:55:15;;;;;;;2.53;2.33;;;-6.50;99.90;;;;;;5050080;28;20021;-62
2021/12/20 09:57:43;;;;;;;3.03;2.35;;;-6.50;99.90;;;;;;5051376;28;20072;-63
2021/12/20 10:00:11;;;;;;;3.50;2.85;;;-6.50;99.90;;;;;;5051136;28;20104;-64
2021/12/20 10:02:37;;;;;;;4.20;2.65;;;-6.60;99.90;;;;;;5051699;28;20021;-64
2021/12/20 10:05:03;;;;;;;2.60;2.40;;;-6.60;99.90;;;;;;5051378;28;20032;-64
2021/12/20 10:07:29;;;;;;;4.22;2.30;;;-6.60;99.90;;;;;;5054845;28;20047;-64
2021/12/20 10:09:56;;;;;;;3.17;2.22;;;-6.60;99.90;;;;;;5037609;28;20029;-64
2021/12/20 10:12:24;;;;;;;3.25;2.35;;;-6.70;99.90;;;;;;5054986;28;20036;-64
2021/12/20 10:15:05;;;;;;;2.50;2.28;;;-6.70;99.90;;;;;;5055735;28;20480;-64
2021/12/20 10:17:55;;;;;;;3.22;2.53;;;-6.70;99.90;;;;;;5055089;28;20032;-64
2021/12/20 10:20:33;;;;;;;5.43;2.37;;;-6.70;99.90;;;;;;5055181;28;20528;-64
2021/12/20 10:23:09;;;;;;;3.13;2.50;;;-6.40;99.90;;;;;;5055170;28;20033;-65
2021/12/20 10:25:36;;;;;;;2.80;2.60;;;-1.90;99.90;;;;;;5034926;28;20014;-64
2021/12/20 10:28:14;;;;;;;2.90;2.20;;;-1.90;99.90;;;;;;5035031;28;20047;-64
2021/12/20 10:30:44;;;;;;;2.00;1.80;;;-3.10;99.90;;;;;;5035269;28;20071;-65
2021/12/20 10:33:17;;;;;;;3.28;2.53;;;-3.90;99.90;;;;;;5035129;28;20029;-63
2021/12/20 10:35:49;;;;;;;2.47;2.10;;;-4.50;99.90;;;;;;5035086;28;20022;-63
2021/12/20 10:38:18;;;;;;;2.03;1.92;;;-3.60;99.90;;;;;;5059443;28;20027;-63
2021/12/20 10:40:48;;;;;;;2.65;2.00;;;-3.80;99.90;;;;;;5062645;28;20017;-63
2021/12/20 10:43:17;;;;;;;;;;;-4.20;99.90;;;;;;5051963;28;20116;-63
2021/12/20 10:45:43;;;;;;;2.28;2.00;;;-4.50;99.90;;;;;;5054209;28;19952;-63
2021/12/20 10:48:10;;;;;;;2.15;1.95;;;-4.70;99.90;;;;;;5059737;28;20510;-63
2021/12/20 10:50:42;;;;;;;2.47;2.28;;;-4.90;99.90;;;;;;5064873;28;20033;-63
2021/12/20 10:53:24;;;;;;;2.78;2.50;;;-5.00;99.90;;;;;;5068039;28;20066;-63
2021/12/20 10:55:59;;;;;;;2.10;1.90;;;-5.10;99.90;;;;;;5057659;28;20036;-64
2021/12/20 10:58:29;;;;;;;2.45;2.25;;;-5.20;99.90;;;;;;5066683;28;20071;-63
2021/12/20 11:04:06;;;;;;;4.40;2.63;;;-5.30;99.90;;;;;;5044004;28;20035;-63
2021/12/20 11:09:17;;;;;;;2.85;2.58;;;-5.30;99.90;;;;;;5067238;28;20043;-63
2021/12/20 11:11:50;;;;;;;2.38;2.17;;;-5.40;99.90;;;;;;5055600;28;20484;-64
2021/12/20 11:14:19;;;;;;;3.38;2.47;;;-5.50;99.90;;;;;;5060087;28;20028;-63
2021/12/20 11:16:53;;;;;;;3.20;2.40;;;-5.50;99.90;;;;;;5062594;28;20025;-63
2021/12/20 11:19:25;;;;;;;7.05;3.00;;;-5.50;99.90;;;;;;5053447;28;20508;-64
2021/12/20 11:21:57;;;;;;;3.53;2.88;;;-5.60;99.90;;;;;;5070361;28;20056;-63
2021/12/20 11:24:46;;;;;;;7.70;2.15;;;-3.10;99.90;;;;;;5060656;28;20044;-63
2021/12/20 11:27:18;;;;;;;2.65;2.08;;;-2.10;99.90;;;;;;5058980;28;20445;-63
2021/12/20 11:29:45;;;;;;;2.47;2.10;;;-2.90;99.90;;;;;;5070071;28;20166;-63
2021/12/20 11:32:12;;;;;;;2.55;2.30;;;-3.50;99.90;;;;;;5059596;28;20028;-63
2021/12/20 11:34:41;;;;;;;2.70;2.15;;;-4.00;99.90;;;;;;5061807;28;20079;-64
2021/12/20 11:37:09;;;;;;;3.07;2.40;;;-4.30;99.90;;;;;;5067090;28;20044;-63
2021/12/20 11:39:35;;;;;;;2.40;2.20;;;-4.50;99.90;;;;;;5055793;28;20380;-63
2021/12/20 11:42:01;;;;;;;4.25;2.30;;;-4.60;99.90;;;;;;5053723;28;20029;-63
2021/12/20 11:44:29;;;;;;;3.25;2.47;;;-4.80;99.90;;;;;;5053491;28;20033;-63
2021/12/20 11:47:03;;;;;;;2.92;2.58;;;-4.90;99.90;;;;;;5053472;28;20021;-62
2021/12/20 11:49:32;;;;;;;6.00;3.00;;;-4.80;99.90;;;;;;5052335;28;20041;-62
2021/12/20 11:52:01;;;;;;;4.20;2.58;;;-4.90;99.90;;;;;;5053569;28;20017;-62
2021/12/20 11:54:56;;;;;;;4.15;2.50;;;-5.10;99.90;;;;;;5053335;28;20047;-62
2021/12/20 11:57:30;;;;;;;2.70;2.28;;;-5.50;99.90;;;;;;5056877;28;20056;-62
2021/12/20 11:59:59;;;;;;;2.28;2.00;;;-5.70;99.90;;;;;;5053673;28;20031;-62
2021/12/20 12:02:28;;;;;;;3.58;2.17;;;-5.80;99.90;;;;;;5053338;28;20534;-62
2021/12/20 12:05:07;;;;;;;2.92;2.63;;;-5.90;99.90;;;;;;5053563;28;20064;-62
2021/12/20 12:07:38;;;;;;;2.00;1.80;;;-6.00;99.90;;;;;;5053051;28;20071;-62
2021/12/20 12:10:06;;;;;;;;;;;-6.10;99.90;;;;;;5054175;28;20055;-62
2021/12/20 12:12:39;;;;;;;3.15;2.00;;;-6.20;99.90;;;;;;5053198;28;19916;-62
2021/12/20 12:15:09;;;;;;;3.20;2.20;;;-6.20;99.90;;;;;;5053735;28;20025;-62
2021/12/20 12:17:57;;;;;;;2.92;2.28;;;-6.30;99.90;;;;;;5053099;28;20098;-62
2021/12/20 12:20:53;;;;;;;2.42;2.20;;;-6.30;99.90;;;;;;5053436;28;20021;-62
2021/12/20 12:23:20;;;;;;;3.65;2.20;;;-6.30;99.90;;;;;;5056913;28;20119;-62
2021/12/20 12:26:05;;;;;;;2.28;1.95;;;-6.40;99.90;;;;;;5053293;28;20132;-62
2021/12/20 12:29:04;;;;;;;2.67;2.10;;;-6.40;99.90;;;;;;5053089;28;20041;-62
2021/12/20 12:31:48;;;;;;;3.20;2.35;;;-6.40;99.90;;;;;;5053030;28;20041;-62
2021/12/20 12:34:15;;;;;;;6.80;2.78;;;-6.50;99.90;;;;;;5033007;28;20105;-62
2021/12/20 12:36:42;;;;;;;3.30;2.75;;;-6.50;99.90;;;;;;5032403;28;20545;-62
2021/12/20 12:39:21;;;;;;;3.10;2.58;;;-6.60;99.90;;;;;;5032976;28;20033;-62
2021/12/20 12:41:49;;;;;;;3.00;2.13;;;-6.60;99.90;;;;;;5032855;28;20022;-62
2021/12/20 12:44:15;;;;;;;2.30;2.00;;;-6.60;99.90;;;;;;5032489;28;20025;-62
2021/12/20 12:46:41;;;;;;;2.83;2.20;;;-6.70;99.90;;;;;;5034357;28;20033;-62
2021/12/20 12:49:19;;;;;;;2.88;2.53;;;-6.60;99.90;;;;;;5052770;28;20041;-62
2021/12/20 12:51:46;;;;;;;2.60;2.33;;;-6.60;99.90;;;;;;5052494;28;20083;-62
2021/12/20 12:54:32;;;;;;;2.35;2.15;;;-6.60;99.90;;;;;;5052493;28;20413;-62
2021/12/20 12:57:10;;;;;;;2.60;2.20;;;-6.50;99.90;;;;;;5051975;28;20048;-62
2021/12/20 12:59:47;;;;;;;2.40;2.20;;;-6.50;99.90;;;;;;5052156;28;20025;-64
2021/12/20 13:02:22;;;;;;;2.47;2.28;;;-6.50;99.90;;;;;;5052047;28;20027;-62
2021/12/20 13:04:54;;;;;;;4.57;2.88;;;-6.50;99.90;;;;;;5052238;28;20024;-62
2021/12/20 13:07:21;;;;;;;5.70;3.90;;;-6.60;99.90;;;;;;5051958;28;20025;-62
2021/12/20 13:09:48;;;;;;;4.05;2.85;;;-6.70;99.90;;;;;;5052278;28;20366;-62
2021/12/20 13:12:35;;;;;;;4.30;2.40;;;-6.80;99.90;;;;;;5052112;28;20104;-62
2021/12/20 13:15:14;;;;;;;3.95;2.70;;;-6.80;99.90;;;;;;5052127;28;20116;-62
2021/12/20 13:17:43;;;;;;;2.67;2.45;;;-6.80;99.90;;;;;;5052226;28;20025;-62
2021/12/20 13:20:23;;;;;;;4.60;2.50;;;-6.90;99.90;;;;;;5051860;28;20029;-62
2021/12/20 13:23:06;;;;;;;2.72;2.42;;;-6.90;99.90;;;;;;5051921;28;20029;-62
2021/12/20 13:25:33;;;;;;;2.92;2.25;;;-6.80;99.90;;;;;;5051614;28;20039;-62
2021/12/20 13:27:58;;;;;;;4.70;2.08;;;-6.80;99.90;;;;;;5051805;28;20041;-62
2021/12/20 13:30:45;;;;;;;2.97;2.28;;;-6.80;99.90;;;;;;5051613;28;20380;-62